Terminal Aerodrome Forecast
Issued by NWS

Home | Current Version | Previous Version | Text Only | Print | Product List | Glossary On
Versions: 1 2 3 4 5 6 7 8 9 10 11 12 13 14 15 16 17 18 19 20
000
FTUS43 KGRR 181600 AAB
TAFJXN
TAF AMD
KJXN 181609Z 1816/1912 28006KT P6SM OVC015
      TEMPO 1816/1819 3SM -FZDZ BR OVC008
     FM181900 28006KT P6SM OVC022
     FM190600 32003KT P6SM BKN040=

USA.gov is the U.S. government's official web portal to all federal, state and local government web resources and services.